Thurles, Ireland
Current Conditions -  °F | °C
As of 9:30 PM on Monday 24 Nov 2014 (Local Time) from EIWF Reporting Station
Scattered Clouds Scattered Clouds  
Wind Chill: 10°   Ceiling: Unl
Heat Index: 10°   Visibility: 6mi
Dew Point:   Wind: 5mph
Humidity: 82%   Direction: 260°W
Pressure: 30.3"   Gusts: NA
Location:  52.68°N, 7.48°W
Report Text: EIWF 242030Z 26004KT 230V300 9999 FEW015 SCT030 10/07 Q1026
Loading
Personal Weather Stations






























Interactive Weather Map New forecast layout! Learn more

10-Day Weather Forecast

Advertisements
Track Severe Weather on mobile